createdAt,value
2022-08-28T00:00:02.825Z,75.4
2022-08-28T00:03:03.121Z,75.4
2022-08-28T00:06:03.339Z,76.5
2022-08-28T00:09:02.878Z,76.5
2022-08-28T00:12:02.841Z,76.5
2022-08-28T00:15:04.918Z,76.5
2022-08-28T00:18:02.916Z,76.5
2022-08-28T00:21:02.850Z,76.5
2022-08-28T00:24:05.688Z,76.5
2022-08-28T00:27:02.800Z,76.5
2022-08-28T00:30:02.835Z,76.5
2022-08-28T00:33:02.839Z,76.5
2022-08-28T00:36:02.750Z,76.5
2022-08-28T00:39:03.003Z,76.5
2022-08-28T00:42:03.228Z,76.5
2022-08-28T00:45:02.747Z,76.5
2022-08-28T00:48:02.872Z,76.5
2022-08-28T00:51:03.231Z,76.5
2022-08-28T00:54:09.653Z,76.5
2022-08-28T00:57:02.780Z,78.2
2022-08-28T01:00:02.790Z,78.3
2022-08-28T01:03:03.076Z,78.3
2022-08-28T01:06:02.987Z,78.3
2022-08-28T01:09:02.884Z,78.3
2022-08-28T01:12:02.922Z,78.3
2022-08-28T01:15:03.001Z,78.3
2022-08-28T01:18:10.782Z,78.3
2022-08-28T01:21:02.884Z,78.3
2022-08-28T01:24:02.936Z,78.3
2022-08-28T01:27:02.926Z,78.3
2022-08-28T01:30:02.896Z,78.3
2022-08-28T01:33:03.017Z,78.3
2022-08-28T01:36:02.817Z,78.3
2022-08-28T01:39:02.881Z,78.3
2022-08-28T01:42:02.804Z,78.3
2022-08-28T01:45:02.815Z,78.3
2022-08-28T01:48:02.831Z,78.3
2022-08-28T01:51:03.030Z,78.3
2022-08-28T01:54:03.982Z,78.3
2022-08-28T01:57:02.809Z,78.7
2022-08-28T02:00:03.437Z,78.7
2022-08-28T02:03:02.771Z,78.7
2022-08-28T02:06:02.799Z,78.7
2022-08-28T02:09:02.887Z,78.7
2022-08-28T02:12:02.915Z,78.7
2022-08-28T02:15:02.879Z,78.7
2022-08-28T02:18:02.746Z,78.9
2022-08-28T02:21:02.831Z,78.9
2022-08-28T02:24:02.797Z,78.9
2022-08-28T02:27:02.771Z,78.9
2022-08-28T02:30:02.808Z,78.9
2022-08-28T02:33:02.781Z,78.9
2022-08-28T02:36:02.792Z,78.9
2022-08-28T02:39:02.790Z,78.9
2022-08-28T02:42:02.827Z,78.9
2022-08-28T02:45:02.749Z,78.9
2022-08-28T02:48:02.841Z,78.9
2022-08-28T02:51:02.750Z,79.1
2022-08-28T02:54:02.879Z,79.1
2022-08-28T02:57:02.744Z,79.1
2022-08-28T03:00:02.816Z,79.1
2022-08-28T03:03:02.934Z,79.1
2022-08-28T03:06:02.865Z,79.1
2022-08-28T03:09:02.734Z,79.1
2022-08-28T03:12:03.346Z,79.1
2022-08-28T03:15:02.920Z,79.1
2022-08-28T03:18:03.085Z,79.1
2022-08-28T03:21:02.781Z,79.1
2022-08-28T03:24:02.798Z,79.1
2022-08-28T03:27:02.793Z,79.1
2022-08-28T03:30:02.813Z,79.1
2022-08-28T03:33:02.764Z,79.1
2022-08-28T03:36:06.787Z,79.1
2022-08-28T03:39:02.804Z,79.1
2022-08-28T03:42:02.825Z,79.1
2022-08-28T03:45:02.804Z,79.2
2022-08-28T03:48:03.117Z,79.2
2022-08-28T03:51:02.764Z,79.2
2022-08-28T03:54:02.767Z,79.2
2022-08-28T03:57:02.769Z,79.2
2022-08-28T04:00:02.862Z,79.2
2022-08-28T04:03:02.978Z,79.2
2022-08-28T04:06:02.786Z,79.2
2022-08-28T04:09:02.914Z,79.2
2022-08-28T04:12:02.785Z,79.2
2022-08-28T04:15:02.757Z,79.2
2022-08-28T04:18:02.826Z,79.2
2022-08-28T04:21:02.842Z,79.2
2022-08-28T04:24:04.940Z,79.2
2022-08-28T04:27:02.763Z,79.2
2022-08-28T04:30:02.813Z,79.2
2022-08-28T04:33:02.788Z,79.2
2022-08-28T04:36:02.859Z,79.2
2022-08-28T04:39:02.786Z,79.2
2022-08-28T04:42:02.771Z,79.2
2022-08-28T04:45:02.776Z,79.5
2022-08-28T04:48:10.608Z,79.5
2022-08-28T04:51:02.769Z,79.5
2022-08-28T04:54:02.877Z,79.5
2022-08-28T04:57:02.905Z,79.5
2022-08-28T05:00:02.921Z,79.7
2022-08-28T05:03:02.781Z,79.7
2022-08-28T05:06:02.815Z,79.7
2022-08-28T05:09:02.858Z,79.7
2022-08-28T05:12:02.846Z,79.7
2022-08-28T05:15:02.783Z,79.7
2022-08-28T05:18:02.789Z,79.7
2022-08-28T05:21:02.826Z,79.7
2022-08-28T05:24:02.854Z,79.7
2022-08-28T05:27:02.786Z,79.7
2022-08-28T05:30:04.567Z,79.7
2022-08-28T05:33:02.763Z,79.7
2022-08-28T05:36:02.815Z,79.7
2022-08-28T05:39:02.824Z,79.7
2022-08-28T05:42:02.811Z,79.7
2022-08-28T05:45:02.835Z,78.2
2022-08-28T05:48:02.770Z,78.2
2022-08-28T05:51:05.218Z,78.2
2022-08-28T05:54:02.798Z,78.2
2022-08-28T05:57:03.307Z,78.2
2022-08-28T06:00:02.883Z,78.2
2022-08-28T06:03:02.788Z,78.2
2022-08-28T06:06:02.783Z,78.2
2022-08-28T06:09:02.795Z,78.2
2022-08-28T06:12:03.851Z,78.2
2022-08-28T06:15:02.772Z,78.2
2022-08-28T06:18:02.842Z,77.2
2022-08-28T06:21:02.819Z,77.2
2022-08-28T06:24:02.852Z,77.2
2022-08-28T06:27:02.779Z,77.2
2022-08-28T06:30:02.873Z,77.2
2022-08-28T06:33:03.464Z,77.2
2022-08-28T06:36:02.814Z,77.2
2022-08-28T06:39:02.784Z,76.7
2022-08-28T06:42:03.437Z,76.7
2022-08-28T06:45:02.820Z,76.7
2022-08-28T06:48:02.888Z,76.7
2022-08-28T06:51:02.774Z,75.7
2022-08-28T06:54:02.877Z,75.7
2022-08-28T06:57:02.797Z,75.7
2022-08-28T07:00:03.157Z,75.7
2022-08-28T07:03:03.261Z,75.7
2022-08-28T07:06:02.884Z,75.7
2022-08-28T07:09:02.843Z,75.7
2022-08-28T07:12:02.907Z,75.7
2022-08-28T07:15:02.801Z,75.7
2022-08-28T07:18:02.782Z,73.8
2022-08-28T07:21:02.833Z,73.8
2022-08-28T07:24:02.772Z,73.8
2022-08-28T07:27:02.816Z,73.8
2022-08-28T07:30:02.829Z,73.8
2022-08-28T07:33:02.858Z,73.8
2022-08-28T07:36:02.829Z,72.8
2022-08-28T07:39:02.871Z,72.8
2022-08-28T07:42:02.829Z,72.8
2022-08-28T07:45:02.798Z,72.8
2022-08-28T07:48:02.856Z,72.8
2022-08-28T07:51:02.811Z,72.8
2022-08-28T07:54:02.820Z,72.8
2022-08-28T07:57:02.803Z,72.8
2022-08-28T08:00:02.862Z,72.1
2022-08-28T08:03:02.936Z,72.1
2022-08-28T08:06:02.782Z,72.1
2022-08-28T08:09:02.817Z,72.1
2022-08-28T08:12:02.975Z,72.1
2022-08-28T08:15:02.832Z,72.1
2022-08-28T08:18:02.778Z,72.1
2022-08-28T08:21:02.773Z,72.1
2022-08-28T08:24:02.888Z,72.1
2022-08-28T08:27:03.361Z,71.1
2022-08-28T08:30:02.926Z,71.1
2022-08-28T08:33:02.790Z,71.1
2022-08-28T08:36:02.765Z,71.1
2022-08-28T08:39:03.739Z,71.1
2022-08-28T08:42:02.863Z,71.1
2022-08-28T08:45:02.800Z,71.1
2022-08-28T08:48:02.806Z,71.1
2022-08-28T08:51:02.868Z,71.1
2022-08-28T08:54:02.809Z,71.1
2022-08-28T08:57:02.768Z,71.1
2022-08-28T09:00:02.937Z,70.5
2022-08-28T09:03:03.006Z,70.5
2022-08-28T09:06:02.793Z,70.5
2022-08-28T09:09:02.837Z,70.5
2022-08-28T09:12:02.834Z,70.5
2022-08-28T09:15:02.787Z,70.5
2022-08-28T09:18:03.284Z,70.5
2022-08-28T09:21:02.742Z,70.5
2022-08-28T09:24:05.648Z,65.7
2022-08-28T09:27:02.802Z,65.7
2022-08-28T09:30:10.643Z,65.7
2022-08-28T09:33:02.769Z,65.7
2022-08-28T09:36:02.868Z,65.7
2022-08-28T09:39:02.763Z,64.9
2022-08-28T09:42:02.821Z,64.9
2022-08-28T09:45:02.807Z,64.9
2022-08-28T09:48:02.829Z,64.9
2022-08-28T09:51:02.803Z,64.9
2022-08-28T09:54:02.884Z,64.9
2022-08-28T09:57:02.821Z,64.9
2022-08-28T10:00:02.852Z,64.3
2022-08-28T10:03:09.634Z,64.3
2022-08-28T10:06:02.781Z,64.3
2022-08-28T10:09:02.783Z,64.3
2022-08-28T10:12:02.815Z,64.3
2022-08-28T10:15:02.804Z,63.2
2022-08-28T10:18:02.835Z,63.2
2022-08-28T10:21:02.824Z,63.2
2022-08-28T10:24:02.809Z,63.2
2022-08-28T10:27:02.841Z,63.2
2022-08-28T10:30:13.596Z,63.2
2022-08-28T10:33:02.812Z,62.3
2022-08-28T10:36:02.791Z,62.3
2022-08-28T10:39:02.850Z,62.3
2022-08-28T10:42:02.785Z,62.3
2022-08-28T10:45:03.537Z,62.3
2022-08-28T10:48:02.817Z,62.3
2022-08-28T10:51:02.970Z,62.3
2022-08-28T10:54:02.792Z,62.3
2022-08-28T10:57:02.807Z,62.3
2022-08-28T11:00:02.883Z,61
2022-08-28T11:03:03.107Z,61
2022-08-28T11:06:02.819Z,61
2022-08-28T11:09:02.824Z,61
2022-08-28T11:12:04.848Z,61
2022-08-28T11:15:02.823Z,61.5
2022-08-28T11:18:02.789Z,61.5
2022-08-28T11:21:02.805Z,61.5
2022-08-28T11:24:02.782Z,61.5
2022-08-28T11:27:02.791Z,61.5
2022-08-28T11:30:02.935Z,61.5
2022-08-28T11:33:02.788Z,57.6
2022-08-28T11:36:02.786Z,57.6
2022-08-28T11:39:02.847Z,57.6
2022-08-28T11:42:02.827Z,57.6
2022-08-28T11:45:02.878Z,57.6
2022-08-28T11:48:02.844Z,57.6
2022-08-28T11:51:02.792Z,57.6
2022-08-28T11:54:02.832Z,57.6
2022-08-28T11:57:02.771Z,57.6
2022-08-28T12:00:02.881Z,57.6
2022-08-28T12:03:02.805Z,57.6
2022-08-28T12:06:02.844Z,57.2
2022-08-28T12:09:02.807Z,57.2
2022-08-28T12:12:02.837Z,56.6
2022-08-28T12:15:02.813Z,56.6
2022-08-28T12:18:02.795Z,56.6
2022-08-28T12:21:02.748Z,56.6
2022-08-28T12:24:14.598Z,56.6
2022-08-28T12:27:02.783Z,56.6
2022-08-28T12:30:02.880Z,56.6
2022-08-28T12:33:02.794Z,54.9
2022-08-28T12:36:02.830Z,53.8
2022-08-28T12:39:02.796Z,53.8
2022-08-28T12:42:02.822Z,53.8
2022-08-28T12:45:02.841Z,53.8
2022-08-28T12:48:02.838Z,53.8
2022-08-28T12:51:05.261Z,53.8
2022-08-28T12:54:02.787Z,53.8
2022-08-28T12:57:02.813Z,53.8
2022-08-28T13:00:02.840Z,53.8
2022-08-28T13:03:02.810Z,53.8
2022-08-28T13:06:02.806Z,55
2022-08-28T13:09:02.848Z,55
2022-08-28T13:12:02.805Z,55
2022-08-28T13:15:02.821Z,55
2022-08-28T13:18:02.842Z,55
2022-08-28T13:21:02.784Z,55
2022-08-28T13:24:03.827Z,53.1
2022-08-28T13:27:02.832Z,53.1
2022-08-28T13:30:03.651Z,53.1
2022-08-28T13:33:02.792Z,53.1
2022-08-28T13:36:02.774Z,53.1
2022-08-28T13:39:02.829Z,53.1
2022-08-28T13:42:02.837Z,53.1
2022-08-28T13:45:02.803Z,53.1
2022-08-28T13:48:02.811Z,53.1
2022-08-28T13:51:07.663Z,53.1
2022-08-28T13:54:03.086Z,53.1
2022-08-28T13:57:02.813Z,53.1
2022-08-28T14:00:02.863Z,53.1
2022-08-28T14:03:02.827Z,53.1
2022-08-28T14:06:02.791Z,50.1
2022-08-28T14:09:02.841Z,50.1
2022-08-28T14:12:02.791Z,50.1
2022-08-28T14:15:02.953Z,50.1
2022-08-28T14:18:02.768Z,50.1
2022-08-28T14:21:02.839Z,50.1
2022-08-28T14:24:02.788Z,50.1
2022-08-28T14:27:02.786Z,50.1
2022-08-28T14:30:02.827Z,50.1
2022-08-28T14:33:02.805Z,50.1
2022-08-28T14:36:02.837Z,50.1
2022-08-28T14:39:08.417Z,50.1
2022-08-28T14:42:02.787Z,50.1
2022-08-28T14:45:02.812Z,50.1
2022-08-28T14:48:02.974Z,50.1
2022-08-28T14:51:02.792Z,50.1
2022-08-28T14:54:02.822Z,50.1
2022-08-28T14:57:02.767Z,50.1
2022-08-28T15:00:02.891Z,50.1
2022-08-28T15:03:02.783Z,50.8
2022-08-28T15:06:02.849Z,50.8
2022-08-28T15:09:02.823Z,50.8
2022-08-28T15:12:02.778Z,50.8
2022-08-28T15:15:02.844Z,50.8
2022-08-28T15:18:02.809Z,50.8
2022-08-28T15:21:02.812Z,50.8
2022-08-28T15:24:02.786Z,50.8
2022-08-28T15:27:02.806Z,50.8
2022-08-28T15:30:02.914Z,50.8
2022-08-28T15:33:02.775Z,50.8
2022-08-28T15:36:02.797Z,50.8
2022-08-28T15:39:02.843Z,50.8
2022-08-28T15:42:02.848Z,50.8
2022-08-28T15:45:02.898Z,50.8
2022-08-28T15:48:02.893Z,50.8
2022-08-28T15:51:03.651Z,50.8
2022-08-28T15:54:02.872Z,50.8
2022-08-28T15:57:02.835Z,50.8
2022-08-28T16:00:03.697Z,48.6
2022-08-28T16:03:02.774Z,48.6
2022-08-28T16:06:02.983Z,48.6
2022-08-28T16:09:02.820Z,48.6
2022-08-28T16:12:02.859Z,48.6
2022-08-28T16:15:02.801Z,48.6
2022-08-28T16:18:02.822Z,48.6
2022-08-28T16:21:07.399Z,48.6
2022-08-28T16:24:02.943Z,49.6
2022-08-28T16:27:03.160Z,49.6
2022-08-28T16:30:03.097Z,49.6
2022-08-28T16:33:03.074Z,49.6
2022-08-28T16:36:02.772Z,49.6
2022-08-28T16:39:06.418Z,49.6
2022-08-28T16:42:02.886Z,49.6
2022-08-28T16:45:02.887Z,49.6
2022-08-28T16:48:02.786Z,49.6
2022-08-28T16:51:02.820Z,49.6
2022-08-28T16:54:02.786Z,49.6
2022-08-28T16:57:02.830Z,49.6
2022-08-28T17:00:02.927Z,49.1
2022-08-28T17:03:02.811Z,49.1
2022-08-28T17:06:02.770Z,49.1
2022-08-28T17:09:02.816Z,48.8
2022-08-28T17:12:02.782Z,48.8
2022-08-28T17:15:02.797Z,48.8
2022-08-28T17:18:02.883Z,48.8
2022-08-28T17:21:02.774Z,48.8
2022-08-28T17:24:02.881Z,48.8
2022-08-28T17:27:08.169Z,48.8
2022-08-28T17:30:02.895Z,48.8
2022-08-28T17:33:02.773Z,48.8
2022-08-28T17:36:02.803Z,48.8
2022-08-28T17:39:02.786Z,50.7
2022-08-28T17:42:02.850Z,50.7
2022-08-28T17:45:02.810Z,50.7
2022-08-28T17:48:02.852Z,50.7
2022-08-28T17:51:02.789Z,50.7
2022-08-28T17:54:02.829Z,51.9
2022-08-28T17:57:02.835Z,51.9
2022-08-28T18:00:05.148Z,51.9
2022-08-28T18:03:02.748Z,52.2
2022-08-28T18:06:02.809Z,52.2
2022-08-28T18:09:02.910Z,52.2
2022-08-28T18:12:02.827Z,52.2
2022-08-28T18:15:02.813Z,52.2
2022-08-28T18:18:02.848Z,52.9
2022-08-28T18:21:02.755Z,52.9
2022-08-28T18:24:02.859Z,52.9
2022-08-28T18:27:03.053Z,52.9
2022-08-28T18:30:02.762Z,52.9
2022-08-28T18:33:02.838Z,52.9
2022-08-28T18:36:03.098Z,52.9
2022-08-28T18:39:03.275Z,54.4
2022-08-28T18:42:02.832Z,54.4
2022-08-28T18:45:02.853Z,54.4
2022-08-28T18:48:02.996Z,55
2022-08-28T18:51:02.822Z,55
2022-08-28T18:54:02.874Z,55
2022-08-28T18:57:07.811Z,55.7
2022-08-28T19:00:03.466Z,55.7
2022-08-28T19:03:03.491Z,55.7
2022-08-28T19:06:02.805Z,55.7
2022-08-28T19:09:02.788Z,55.7
2022-08-28T19:12:02.791Z,55.7
2022-08-28T19:15:02.837Z,55.7
2022-08-28T19:18:02.837Z,55.7
2022-08-28T19:21:02.764Z,57.8
2022-08-28T19:24:02.828Z,57.8
2022-08-28T19:27:02.822Z,57.8
2022-08-28T19:30:02.793Z,57.8
2022-08-28T19:33:02.845Z,57.8
2022-08-28T19:36:02.810Z,57.8
2022-08-28T19:39:02.863Z,58.9
2022-08-28T19:42:02.812Z,58.9
2022-08-28T19:45:02.918Z,59.2
2022-08-28T19:48:02.845Z,59.2
2022-08-28T19:51:02.772Z,59.2
2022-08-28T19:54:02.792Z,59.2
2022-08-28T19:57:02.844Z,59.2
2022-08-28T20:00:02.859Z,59.2
2022-08-28T20:03:02.989Z,59.2
2022-08-28T20:06:02.836Z,59.2
2022-08-28T20:09:03.224Z,59.2
2022-08-28T20:12:02.784Z,59.2
2022-08-28T20:15:06.136Z,59.2
2022-08-28T20:18:03.075Z,59.2
2022-08-28T20:21:02.806Z,61.7
2022-08-28T20:24:02.773Z,61.7
2022-08-28T20:27:02.864Z,61.7
2022-08-28T20:30:12.854Z,61.7
2022-08-28T20:33:02.781Z,61.7
2022-08-28T20:36:02.747Z,62.8
2022-08-28T20:39:02.922Z,62.8
2022-08-28T20:42:02.754Z,63.4
2022-08-28T20:45:03.152Z,63.4
2022-08-28T20:48:02.841Z,63.4
2022-08-28T20:51:02.773Z,63.4
2022-08-28T20:54:02.806Z,63.4
2022-08-28T20:57:03.192Z,64.2
2022-08-28T21:00:08.195Z,64.2
2022-08-28T21:03:02.794Z,64.2
2022-08-28T21:06:02.784Z,64.2
2022-08-28T21:09:02.820Z,64.2
2022-08-28T21:12:02.820Z,64.2
2022-08-28T21:15:03.173Z,64.2
2022-08-28T21:18:02.795Z,64.2
2022-08-28T21:21:02.812Z,64.2
2022-08-28T21:24:02.756Z,64.2
2022-08-28T21:27:02.867Z,64.2
2022-08-28T21:30:02.886Z,66.6
2022-08-28T21:33:02.837Z,66.6
2022-08-28T21:36:02.791Z,66.6
2022-08-28T21:39:02.818Z,66.6
2022-08-28T21:42:02.735Z,66.6
2022-08-28T21:45:02.814Z,66.6
2022-08-28T21:48:02.808Z,66.6
2022-08-28T21:51:03.367Z,66.6
2022-08-28T21:54:02.735Z,66.6
2022-08-28T21:57:02.787Z,66.6
2022-08-28T22:00:03.259Z,66.6
2022-08-28T22:03:02.808Z,66.6
2022-08-28T22:06:02.801Z,66.8
2022-08-28T22:09:02.830Z,66.8
2022-08-28T22:12:02.783Z,66.8
2022-08-28T22:15:02.843Z,66.8
2022-08-28T22:18:02.812Z,66.8
2022-08-28T22:21:02.703Z,67.2
2022-08-28T22:24:02.790Z,67.2
2022-08-28T22:27:02.799Z,67.2
2022-08-28T22:30:02.826Z,67.2
2022-08-28T22:33:02.717Z,67.2
2022-08-28T22:36:02.836Z,67.2
2022-08-28T22:39:02.852Z,67.2
2022-08-28T22:42:02.793Z,67.2
2022-08-28T22:45:02.745Z,67.2
2022-08-28T22:48:02.815Z,67.2
2022-08-28T22:51:02.822Z,67.2
2022-08-28T22:54:02.842Z,67.2
2022-08-28T22:57:02.773Z,67.2
2022-08-28T23:00:02.891Z,67.2
2022-08-28T23:03:02.947Z,67.2
2022-08-28T23:06:03.135Z,69.1
2022-08-28T23:09:02.879Z,69.1
2022-08-28T23:12:02.780Z,69.1
2022-08-28T23:15:02.786Z,69.1
2022-08-28T23:18:03.590Z,69.1
2022-08-28T23:21:02.777Z,69.3
2022-08-28T23:24:03.640Z,69.3
2022-08-28T23:27:38.326Z,69.3
2022-08-28T23:30:02.816Z,69.3
2022-08-28T23:33:03.072Z,69.3
2022-08-28T23:36:02.801Z,69.3
2022-08-28T23:39:03.257Z,69.3
2022-08-28T23:42:02.798Z,69.3
2022-08-28T23:45:03.573Z,69.3
2022-08-28T23:48:02.802Z,69.3
2022-08-28T23:51:02.778Z,69.3
2022-08-28T23:54:02.757Z,69.3
2022-08-28T23:57:02.756Z,69.3
